Time;durP1;ratioP1;P1;durP2;ratioP2;P2;SDS_P1;SDS_P2;PMS_P1;PMS_P2;Temp;Humidity;BMP_temperature;BMP_pressure;BME280_temperature;BME280_humidity;BME280_pressure;Samples;Min_cycle;Max_cycle;Signal;HPM_P1;HPM_P2
2021/07/01 00:00:23;;;;;;;24.10;13.05;;;;;;;;;;5080889;28;20035;-74
2021/07/01 00:02:49;;;;;;;21.90;14.25;;;;;;;;;;5076676;28;20036;-73
2021/07/01 00:05:16;;;;;;;22.48;13.52;;;;;;;;;;5090858;28;20025;-74
2021/07/01 00:07:43;;;;;;;21.50;13.40;;;;;;;;;;5091245;28;20043;-74
2021/07/01 00:10:10;;;;;;;20.30;13.82;;;;;;;;;;5087883;28;20816;-73
2021/07/01 00:12:36;;;;;;;24.50;13.60;;;;;;;;;;5090793;28;20031;-74
2021/07/01 00:15:04;;;;;;;20.65;13.25;;;;;;;;;;5085605;28;20483;-73
2021/07/01 00:17:30;;;;;;;20.33;14.15;;;;;;;;;;5080374;28;20036;-74
2021/07/01 00:19:56;;;;;;;20.15;13.23;;;;;;;;;;5085514;28;20043;-74
2021/07/01 00:22:22;;;;;;;23.90;14.88;;;;;;;;;;5091800;28;20023;-73
2021/07/01 00:24:48;;;;;;;20.50;13.38;;;;;;;;;;5088946;28;20432;-74
2021/07/01 00:27:14;;;;;;;21.38;13.40;;;;;;;;;;5090260;28;20032;-74
2021/07/01 00:29:40;;;;;;;23.38;13.43;;;;;;;;;;5088966;28;20032;-74
2021/07/01 00:32:06;;;;;;;28.38;15.00;;;;;;;;;;5089562;28;20034;-75
2021/07/01 00:34:33;;;;;;;22.20;14.02;;;;;;;;;;5088729;28;20032;-74
2021/07/01 00:36:59;;;;;;;24.25;13.80;;;;;;;;;;5090914;28;20024;-74
2021/07/01 00:39:25;;;;;;;20.58;13.75;;;;;;;;;;5085111;28;20028;-75
2021/07/01 00:41:51;;;;;;;20.05;13.02;;;;;;;;;;5091754;28;20020;-75
2021/07/01 00:44:17;;;;;;;27.08;13.48;;;;;;;;;;5089764;28;20165;-74
2021/07/01 00:46:43;;;;;;;19.42;12.93;;;;;;;;;;5092718;28;20031;-74
2021/07/01 00:49:09;;;;;;;24.83;13.07;;;;;;;;;;5088028;28;20099;-74
2021/07/01 00:51:35;;;;;;;25.23;14.60;;;;;;;;;;5090663;28;20439;-74
2021/07/01 00:54:02;;;;;;;21.52;13.85;;;;;;;;;;5086574;28;20020;-73
2021/07/01 00:56:28;;;;;;;23.10;13.07;;;;;;;;;;5077069;28;20044;-74
2021/07/01 00:58:55;;;;;;;21.73;14.27;;;;;;;;;;5076453;28;20489;-75
2021/07/01 01:01:22;;;;;;;24.15;13.27;;;;;;;;;;5088662;28;20022;-75
2021/07/01 01:03:49;;;;;;;22.55;13.85;;;;;;;;;;5092316;28;20024;-75
2021/07/01 01:06:15;;;;;;;24.00;14.02;;;;;;;;;;5083657;28;20020;-75
2021/07/01 01:08:41;;;;;;;26.85;13.55;;;;;;;;;;5076636;28;20025;-74
2021/07/01 01:11:07;;;;;;;22.58;13.20;;;;;;;;;;5076430;28;20028;-74
2021/07/01 01:13:33;;;;;;;20.77;12.57;;;;;;;;;;5085461;28;20032;-75
2021/07/01 01:16:03;;;;;;;24.17;13.10;;;;;;;;;;5090401;28;20495;-75
2021/07/01 01:18:37;;;;;;;22.20;13.00;;;;;;;;;;5080395;28;20035;-74
2021/07/01 01:21:13;;;;;;;20.75;13.45;;;;;;;;;;5089717;28;20020;-74
2021/07/01 01:23:39;;;;;;;22.50;12.95;;;;;;;;;;5084066;28;20032;-74
2021/07/01 01:26:06;;;;;;;20.85;12.07;;;;;;;;;;5078212;28;21735;-74
2021/07/01 01:28:32;;;;;;;20.90;12.25;;;;;;;;;;5080799;28;20078;-74
2021/07/01 01:30:58;;;;;;;19.67;11.93;;;;;;;;;;5088742;28;20105;-74
2021/07/01 01:33:25;;;;;;;18.02;11.75;;;;;;;;;;5081760;28;20017;-74
2021/07/01 01:35:51;;;;;;;20.98;12.45;;;;;;;;;;5073815;28;20159;-74
2021/07/01 01:38:18;;;;;;;20.40;12.02;;;;;;;;;;5076085;28;20491;-75
2021/07/01 01:40:47;;;;;;;21.73;12.43;;;;;;;;;;5078106;28;20020;-74
2021/07/01 01:43:13;;;;;;;18.40;11.30;;;;;;;;;;5087113;28;20016;-74
2021/07/01 01:45:40;;;;;;;16.92;10.57;;;;;;;;;;5087081;28;20024;-73
2021/07/01 01:48:06;;;;;;;18.02;11.48;;;;;;;;;;5083267;28;20382;-74
2021/07/01 01:50:33;;;;;;;18.20;10.90;;;;;;;;;;5082686;28;20051;-74
2021/07/01 01:52:59;;;;;;;17.85;10.77;;;;;;;;;;5095943;28;20078;-75
2021/07/01 01:55:25;;;;;;;20.67;12.45;;;;;;;;;;5095129;28;20028;-75
2021/07/01 01:57:52;;;;;;;19.58;12.55;;;;;;;;;;5089624;28;20040;-74
2021/07/01 02:00:22;;;;;;;20.52;12.77;;;;;;;;;;5088290;28;20036;-75
2021/07/01 02:02:48;;;;;;;23.55;13.02;;;;;;;;;;5097564;28;20029;-75
2021/07/01 02:05:14;;;;;;;27.80;15.60;;;;;;;;;;5082276;28;20032;-74
2021/07/01 02:07:41;;;;;;;31.58;17.55;;;;;;;;;;5089688;28;20446;-74
2021/07/01 02:10:08;;;;;;;26.90;16.48;;;;;;;;;;5086967;28;20035;-74
2021/07/01 02:12:34;;;;;;;29.80;15.82;;;;;;;;;;5075244;28;20086;-74
2021/07/01 02:15:00;;;;;;;30.95;15.88;;;;;;;;;;5079988;28;20024;-74
2021/07/01 02:17:26;;;;;;;36.17;18.08;;;;;;;;;;5088334;28;20498;-73
2021/07/01 02:19:53;;;;;;;37.70;15.93;;;;;;;;;;5085991;28;20067;-75
2021/07/01 02:22:19;;;;;;;43.17;19.25;;;;;;;;;;5095304;28;20024;-75
2021/07/01 02:24:45;;;;;;;36.95;17.92;;;;;;;;;;5088221;28;20024;-75
2021/07/01 02:27:11;;;;;;;30.48;16.67;;;;;;;;;;5075994;28;20032;-75
2021/07/01 02:29:37;;;;;;;37.28;16.80;;;;;;;;;;5076015;28;20034;-74
2021/07/01 02:32:04;;;;;;;27.85;14.50;;;;;;;;;;5078825;28;20086;-75
2021/07/01 02:34:30;;;;;;;24.35;13.00;;;;;;;;;;5078490;28;20107;-74
2021/07/01 02:36:56;;;;;;;27.85;15.18;;;;;;;;;;5089221;28;20037;-74
2021/07/01 02:39:22;;;;;;;30.40;13.88;;;;;;;;;;5076842;28;20479;-74
2021/07/01 02:41:49;;;;;;;37.92;14.75;;;;;;;;;;5075850;28;20107;-74
2021/07/01 02:44:16;;;;;;;37.08;13.85;;;;;;;;;;5079175;28;20028;-75
2021/07/01 02:46:44;;;;;;;25.88;13.68;;;;;;;;;;5080202;28;20024;-74
2021/07/01 02:49:10;;;;;;;55.67;14.32;;;;;;;;;;5082435;28;20397;-74
2021/07/01 02:51:36;;;;;;;46.33;14.60;;;;;;;;;;5090145;28;20023;-74
2021/07/01 02:54:03;;;;;;;83.82;17.83;;;;;;;;;;5092969;28;20024;-74
2021/07/01 02:56:39;;;;;;;38.33;13.95;;;;;;;;;;5082126;28;20027;-73
2021/07/01 02:59:06;;;;;;;62.45;15.07;;;;;;;;;;5090367;28;20050;-75
2021/07/01 03:01:32;;;;;;;50.28;15.88;;;;;;;;;;5076800;28;20031;-74
2021/07/01 03:03:58;;;;;;;55.30;15.32;;;;;;;;;;5074363;28;20028;-74
2021/07/01 03:06:24;;;;;;;60.25;16.25;;;;;;;;;;5092323;28;20099;-73
2021/07/01 03:08:50;;;;;;;32.38;14.27;;;;;;;;;;5075426;28;20028;-74
2021/07/01 03:11:16;;;;;;;37.88;13.38;;;;;;;;;;5075283;28;20132;-74
2021/07/01 03:13:42;;;;;;;49.38;15.35;;;;;;;;;;5091662;28;20032;-74
2021/07/01 03:16:08;;;;;;;66.82;16.85;;;;;;;;;;5077441;28;20434;-74
2021/07/01 03:18:34;;;;;;;88.50;18.45;;;;;;;;;;5090846;28;20028;-74
2021/07/01 03:21:01;;;;;;;80.20;16.70;;;;;;;;;;5087765;28;20020;-74
2021/07/01 03:23:27;;;;;;;46.40;15.88;;;;;;;;;;5094318;28;20024;-73
2021/07/01 03:25:53;;;;;;;73.15;16.75;;;;;;;;;;5082554;28;20047;-74
2021/07/01 03:28:19;;;;;;;57.67;16.25;;;;;;;;;;5082591;28;20028;-74
2021/07/01 03:30:45;;;;;;;85.32;16.13;;;;;;;;;;5087103;28;20081;-73
2021/07/01 03:33:11;;;;;;;154.73;17.77;;;;;;;;;;5085242;28;20479;-73
2021/07/01 03:35:37;;;;;;;50.17;16.35;;;;;;;;;;5082668;28;20090;-74
2021/07/01 03:38:03;;;;;;;44.72;16.50;;;;;;;;;;5078804;28;20047;-74
2021/07/01 03:40:29;;;;;;;39.65;14.65;;;;;;;;;;5079870;28;20024;-73
2021/07/01 03:42:55;;;;;;;48.35;16.75;;;;;;;;;;5078502;28;20024;-74
2021/07/01 03:45:21;;;;;;;56.78;16.38;;;;;;;;;;5079069;28;20027;-74
2021/07/01 03:47:47;;;;;;;76.97;16.00;;;;;;;;;;5088133;28;20028;-74
2021/07/01 03:50:20;;;;;;;66.28;14.45;;;;;;;;;;5089099;28;20379;-74
2021/07/01 03:52:47;;;;;;;61.88;14.32;;;;;;;;;;5092275;28;20028;-74
2021/07/01 03:55:13;;;;;;;63.33;14.63;;;;;;;;;;5092100;28;20162;-74
2021/07/01 03:57:39;;;;;;;82.13;14.63;;;;;;;;;;5091849;28;20555;-74
2021/07/01 04:00:06;;;;;;;82.80;14.65;;;;;;;;;;5087790;28;20028;-73
2021/07/01 04:02:32;;;;;;;64.22;13.65;;;;;;;;;;5091868;28;20035;-74
2021/07/01 04:04:58;;;;;;;66.90;14.20;;;;;;;;;;5091721;28;20024;-73
2021/07/01 04:07:24;;;;;;;28.17;10.98;;;;;;;;;;5093293;28;20059;-73
2021/07/01 04:09:50;;;;;;;105.10;14.23;;;;;;;;;;5089479;28;20031;-73
2021/07/01 04:12:16;;;;;;;36.65;11.05;;;;;;;;;;5074026;28;20107;-73
2021/07/01 04:14:42;;;;;;;35.75;11.80;;;;;;;;;;5094692;27;20028;-73
2021/07/01 04:17:09;;;;;;;47.17;12.70;;;;;;;;;;5076248;28;20032;-74
2021/07/01 04:19:35;;;;;;;82.97;16.42;;;;;;;;;;5075167;28;20522;-73
2021/07/01 04:22:01;;;;;;;49.28;12.85;;;;;;;;;;5081790;28;20076;-74
2021/07/01 04:24:27;;;;;;;108.47;17.00;;;;;;;;;;5092398;28;20099;-74
2021/07/01 04:26:53;;;;;;;86.57;14.90;;;;;;;;;;5093112;28;20016;-74
2021/07/01 04:29:20;;;;;;;117.57;16.63;;;;;;;;;;5083733;28;20387;-74
2021/07/01 04:31:46;;;;;;;43.67;13.43;;;;;;;;;;5089769;28;20023;-73
2021/07/01 04:34:12;;;;;;;65.85;13.40;;;;;;;;;;5075054;28;20126;-74
2021/07/01 04:36:38;;;;;;;62.92;13.73;;;;;;;;;;5085027;28;20025;-74
2021/07/01 04:39:05;;;;;;;26.27;12.05;;;;;;;;;;5071826;28;20103;-74
2021/07/01 04:41:31;;;;;;;24.95;13.07;;;;;;;;;;5073618;28;20025;-73
2021/07/01 04:43:57;;;;;;;21.35;12.10;;;;;;;;;;5074822;28;20035;-74
2021/07/01 04:46:23;;;;;;;23.98;12.40;;;;;;;;;;5076927;28;20075;-74
2021/07/01 04:48:51;;;;;;;26.75;13.27;;;;;;;;;;5072979;28;20039;-73
2021/07/01 04:51:17;;;;;;;33.75;15.95;;;;;;;;;;5087309;28;20070;-74
2021/07/01 04:53:44;;;;;;;27.38;13.43;;;;;;;;;;5092765;28;20394;-74
2021/07/01 04:56:10;;;;;;;33.35;14.07;;;;;;;;;;5092637;28;20024;-75
2021/07/01 04:58:36;;;;;;;42.65;14.57;;;;;;;;;;5072839;28;20048;-74
2021/07/01 05:01:02;;;;;;;34.78;14.38;;;;;;;;;;5083991;28;20553;-73
2021/07/01 05:03:28;;;;;;;45.63;16.77;;;;;;;;;;5088750;28;20519;-74
2021/07/01 05:05:54;;;;;;;57.58;17.95;;;;;;;;;;5078956;28;20052;-74
2021/07/01 05:08:20;;;;;;;64.43;17.63;;;;;;;;;;5091677;28;20028;-74
2021/07/01 05:10:46;;;;;;;65.68;18.08;;;;;;;;;;5089070;28;20032;-74
2021/07/01 05:13:13;;;;;;;58.50;18.35;;;;;;;;;;5085426;28;20029;-74
2021/07/01 05:15:39;;;;;;;52.65;18.05;;;;;;;;;;5077716;28;20095;-74
2021/07/01 05:18:05;;;;;;;48.20;17.65;;;;;;;;;;5096935;28;20355;-74
2021/07/01 05:20:34;;;;;;;76.03;20.58;;;;;;;;;;5085551;28;20025;-74
2021/07/01 05:23:01;;;;;;;57.35;19.02;;;;;;;;;;5095430;28;20016;-74
2021/07/01 05:25:27;;;;;;;53.70;17.88;;;;;;;;;;5094990;28;20433;-75
2021/07/01 05:27:53;;;;;;;47.65;18.45;;;;;;;;;;5085896;28;20028;-74
2021/07/01 05:30:19;;;;;;;38.63;16.25;;;;;;;;;;5096597;28;20073;-74
2021/07/01 05:32:45;;;;;;;69.72;18.92;;;;;;;;;;5085594;28;20059;-74
2021/07/01 05:35:11;;;;;;;55.20;18.70;;;;;;;;;;5085206;28;20104;-74
2021/07/01 05:37:38;;;;;;;81.60;18.20;;;;;;;;;;5078910;28;20482;-74
2021/07/01 05:40:04;;;;;;;71.28;19.63;;;;;;;;;;5096193;28;20024;-74
2021/07/01 05:42:30;;;;;;;57.85;17.38;;;;;;;;;;5093475;28;20062;-73
2021/07/01 05:44:56;;;;;;;71.22;17.30;;;;;;;;;;5078174;28;20056;-74
2021/07/01 05:47:23;;;;;;;94.97;19.13;;;;;;;;;;5092575;28;20047;-74
2021/07/01 05:49:49;;;;;;;55.85;15.60;;;;;;;;;;5082645;28;20059;-74
2021/07/01 05:52:21;;;;;;;35.80;15.13;;;;;;;;;;5094013;28;20111;-74
2021/07/01 05:54:59;;;;;;;44.22;15.95;;;;;;;;;;5081143;28;20024;-75
2021/07/01 05:57:30;;;;;;;40.30;16.13;;;;;;;;;;5095767;28;20043;-74
2021/07/01 05:59:56;;;;;;;37.55;15.32;;;;;;;;;;5094115;28;20028;-74
2021/07/01 06:02:22;;;;;;;35.83;14.73;;;;;;;;;;5092980;28;20031;-74
2021/07/01 06:04:49;;;;;;;39.83;14.52;;;;;;;;;;5094157;28;20020;-74
2021/07/01 06:07:20;;;;;;;47.17;16.00;;;;;;;;;;5094404;28;20031;-75
2021/07/01 06:09:49;;;;;;;33.70;15.05;;;;;;;;;;5094955;28;20047;-73
2021/07/01 06:12:15;;;;;;;37.60;15.52;;;;;;;;;;5093645;28;20483;-73
2021/07/01 06:14:42;;;;;;;64.32;19.33;;;;;;;;;;5093705;28;20028;-75
2021/07/01 06:17:08;;;;;;;36.38;15.07;;;;;;;;;;5094754;28;20093;-74
2021/07/01 06:19:34;;;;;;;60.42;16.70;;;;;;;;;;5090067;28;20050;-74
2021/07/01 06:22:01;;;;;;;36.22;15.48;;;;;;;;;;5090310;28;20024;-74
2021/07/01 06:24:29;;;;;;;30.02;15.85;;;;;;;;;;5095082;28;20028;-74
2021/07/01 06:26:55;;;;;;;37.47;15.43;;;;;;;;;;5094782;28;20023;-74
2021/07/01 06:29:21;;;;;;;25.83;13.40;;;;;;;;;;5095254;28;20058;-74
2021/07/01 06:31:47;;;;;;;26.23;13.35;;;;;;;;;;5095171;28;20024;-74
2021/07/01 06:34:16;;;;;;;26.58;12.88;;;;;;;;;;5095212;28;20055;-74
2021/07/01 06:36:43;;;;;;;32.20;14.60;;;;;;;;;;5094990;28;20051;-74
2021/07/01 06:39:11;;;;;;;31.65;13.32;;;;;;;;;;5094896;28;20023;-74
2021/07/01 06:41:37;;;;;;;28.77;13.80;;;;;;;;;;5094970;28;20028;-74
2021/07/01 06:44:07;;;;;;;31.70;14.68;;;;;;;;;;5095005;28;20024;-74
2021/07/01 06:46:33;;;;;;;39.58;14.93;;;;;;;;;;5093653;28;20378;-74
2021/07/01 06:49:01;;;;;;;36.88;14.68;;;;;;;;;;5094785;28;20099;-74
2021/07/01 06:51:28;;;;;;;34.65;14.80;;;;;;;;;;5094822;28;20070;-75
2021/07/01 06:53:54;;;;;;;33.30;15.40;;;;;;;;;;5094763;28;20024;-74
2021/07/01 06:56:21;;;;;;;42.40;17.05;;;;;;;;;;5094742;28;20043;-74
2021/07/01 06:58:47;;;;;;;33.97;15.20;;;;;;;;;;5092683;28;20043;-74
2021/07/01 07:01:14;;;;;;;29.75;14.95;;;;;;;;;;5084025;28;20061;-74
2021/07/01 07:03:41;;;;;;;35.30;16.42;;;;;;;;;;5091814;28;20063;-76
2021/07/01 07:06:07;;;;;;;40.30;18.13;;;;;;;;;;5088631;28;20070;-74
2021/07/01 07:08:33;;;;;;;38.47;17.25;;;;;;;;;;5079901;28;20032;-75
2021/07/01 07:11:00;;;;;;;41.28;16.73;;;;;;;;;;5084833;28;20029;-75
2021/07/01 07:13:26;;;;;;;37.42;16.65;;;;;;;;;;5078765;28;20028;-75
2021/07/01 07:15:54;;;;;;;33.97;15.93;;;;;;;;;;5089134;28;20047;-76
2021/07/01 07:18:22;;;;;;;36.65;17.02;;;;;;;;;;5413021;22;20011;-63
2021/07/01 07:21:08;;;;;;;33.92;15.73;;;;;;;;;;5060844;28;20025;-63
2021/07/01 07:23:36;;;;;;;36.83;17.67;;;;;;;;;;5064755;28;20044;-63
2021/07/01 07:26:07;;;;;;;36.97;15.60;;;;;;;;;;5063422;28;20494;-60
2021/07/01 07:28:34;;;;;;;32.78;15.30;;;;;;;;;;5068640;28;20106;-62
2021/07/01 07:31:00;;;;;;;40.90;16.90;;;;;;;;;;5073508;28;20029;-61
2021/07/01 07:33:28;;;;;;;32.67;14.70;;;;;;;;;;5050595;28;20025;-62
2021/07/01 07:35:55;;;;;;;34.92;15.68;;;;;;;;;;5067913;28;20055;-64
2021/07/01 07:38:21;;;;;;;38.95;17.20;;;;;;;;;;5064761;28;20052;-63
2021/07/01 07:40:52;;;;;;;40.35;17.52;;;;;;;;;;5070956;28;20028;-65
2021/07/01 07:43:20;;;;;;;39.35;16.90;;;;;;;;;;5071047;28;20043;-62
2021/07/01 07:45:49;;;;;;;39.67;17.33;;;;;;;;;;5069335;28;20389;-61
2021/07/01 07:48:25;;;;;;;30.20;15.45;;;;;;;;;;5067208;28;20029;-62
2021/07/01 07:50:52;;;;;;;32.58;15.23;;;;;;;;;;5067483;28;20450;-62
2021/07/01 07:53:21;;;;;;;29.63;15.32;;;;;;;;;;5068603;28;20039;-63
2021/07/01 07:55:50;;;;;;;35.33;17.88;;;;;;;;;;5067684;28;20098;-63
2021/07/01 07:58:17;;;;;;;27.30;14.25;;;;;;;;;;5065371;28;20336;-62
2021/07/01 08:00:43;;;;;;;24.92;11.90;;;;;;;;;;5066079;28;20036;-63
2021/07/01 08:03:10;;;;;;;18.50;10.27;;;;;;;;;;5068253;28;20055;-62
2021/07/01 08:05:36;;;;;;;19.85;10.48;;;;;;;;;;5068000;28;20033;-63
2021/07/01 08:08:04;;;;;;;25.63;12.60;;;;;;;;;;5061930;28;20036;-63
2021/07/01 08:10:32;;;;;;;21.42;10.82;;;;;;;;;;5065087;28;20563;-63
2021/07/01 08:13:04;;;;;;;19.90;10.65;;;;;;;;;;5068437;28;20028;-64
2021/07/01 08:15:31;;;;;;;21.70;11.52;;;;;;;;;;5068545;28;20028;-63
2021/07/01 08:17:58;;;;;;;26.98;11.23;;;;;;;;;;5068961;28;20103;-62
2021/07/01 08:20:24;;;;;;;22.40;11.60;;;;;;;;;;5044192;28;20064;-62
2021/07/01 08:22:53;;;;;;;20.73;11.05;;;;;;;;;;5045141;28;20025;-62
2021/07/01 08:25:20;;;;;;;20.67;11.63;;;;;;;;;;5030927;28;20045;-62
2021/07/01 08:27:47;;;;;;;22.77;10.60;;;;;;;;;;5046690;28;20486;-62
2021/07/01 08:30:14;;;;;;;21.48;10.45;;;;;;;;;;5044179;28;20569;-64
2021/07/01 08:32:40;;;;;;;20.55;10.13;;;;;;;;;;5046256;28;20110;-64
2021/07/01 08:35:07;;;;;;;125.00;17.55;;;;;;;;;;5048392;28;20071;-57
2021/07/01 08:37:34;;;;;;;36.45;11.88;;;;;;;;;;5045129;28;20112;-61
2021/07/01 08:40:01;;;;;;;22.30;11.65;;;;;;;;;;5045609;28;20049;-59
2021/07/01 08:42:32;;;;;;;16.38;10.23;;;;;;;;;;5047112;28;20021;-60
2021/07/01 08:45:15;;;;;;;22.95;11.70;;;;;;;;;;5045239;28;20021;-59
2021/07/01 08:47:43;;;;;;;21.98;11.57;;;;;;;;;;5045654;28;20060;-61
2021/07/01 08:50:16;;;;;;;14.35;10.07;;;;;;;;;;5045083;28;20029;-61
2021/07/01 08:53:01;;;;;;;17.60;10.55;;;;;;;;;;5043337;28;20142;-60
2021/07/01 08:55:28;;;;;;;18.90;11.23;;;;;;;;;;5044108;28;20118;-60
2021/07/01 08:57:56;;;;;;;17.33;11.02;;;;;;;;;;5045899;28;20025;-60
2021/07/01 09:00:25;;;;;;;18.83;11.82;;;;;;;;;;5045056;28;20124;-60
2021/07/01 09:03:12;;;;;;;20.05;11.80;;;;;;;;;;5041778;28;20039;-59
2021/07/01 09:05:39;;;;;;;19.15;10.88;;;;;;;;;;5048912;28;20102;-61
2021/07/01 09:08:09;;;;;;;20.60;11.95;;;;;;;;;;5044008;28;20032;-59
2021/07/01 09:10:36;;;;;;;19.58;11.63;;;;;;;;;;5047343;28;20044;-60
2021/07/01 09:13:04;;;;;;;20.58;11.85;;;;;;;;;;5051456;28;20087;-61
2021/07/01 09:15:31;;;;;;;21.67;12.80;;;;;;;;;;5046692;28;20043;-61
2021/07/01 09:17:58;;;;;;;19.42;11.63;;;;;;;;;;5045699;28;20025;-60
2021/07/01 09:20:27;;;;;;;18.67;10.73;;;;;;;;;;5060070;28;20044;-61
2021/07/01 09:22:57;;;;;;;23.70;11.68;;;;;;;;;;5059366;28;20031;-61
2021/07/01 09:25:23;;;;;;;27.05;12.63;;;;;;;;;;5064927;28;20051;-61
2021/07/01 09:27:51;;;;;;;20.25;11.43;;;;;;;;;;5066717;28;20067;-60
2021/07/01 09:30:18;;;;;;;20.95;12.45;;;;;;;;;;5066539;28;20041;-62
2021/07/01 09:32:45;;;;;;;18.58;10.93;;;;;;;;;;5067998;28;20041;-67
2021/07/01 09:35:12;;;;;;;16.83;10.40;;;;;;;;;;5068637;28;20029;-61
2021/07/01 09:37:39;;;;;;;20.88;13.00;;;;;;;;;;5066109;28;20143;-61
2021/07/01 09:40:05;;;;;;;19.65;11.75;;;;;;;;;;5064350;28;20504;-60
2021/07/01 09:42:32;;;;;;;18.30;10.95;;;;;;;;;;5068987;28;20036;-62
2021/07/01 09:45:02;;;;;;;16.40;10.88;;;;;;;;;;5066987;28;20028;-61
2021/07/01 09:47:30;;;;;;;17.88;11.57;;;;;;;;;;5062754;28;20036;-61
2021/07/01 09:50:00;;;;;;;18.65;11.45;;;;;;;;;;5046098;28;20040;-60
2021/07/01 09:52:28;;;;;;;18.02;10.63;;;;;;;;;;5047490;28;20032;-61
2021/07/01 09:55:00;;;;;;;20.58;11.73;;;;;;;;;;5064508;28;20115;-60
2021/07/01 09:57:33;;;;;;;21.58;13.32;;;;;;;;;;5065322;28;20033;-61
2021/07/01 10:00:00;;;;;;;22.63;12.85;;;;;;;;;;5060764;28;20024;-60
2021/07/01 10:02:28;;;;;;;19.73;11.88;;;;;;;;;;5067460;28;20037;-62
2021/07/01 10:04:54;;;;;;;17.75;11.60;;;;;;;;;;5070672;28;20021;-61
2021/07/01 10:07:21;;;;;;;19.90;12.43;;;;;;;;;;5070716;28;20191;-61
2021/07/01 10:09:50;;;;;;;20.80;12.63;;;;;;;;;;5067615;28;20028;-61
2021/07/01 10:12:22;;;;;;;18.85;12.02;;;;;;;;;;5070471;28;20032;-63
2021/07/01 10:14:49;;;;;;;19.83;11.82;;;;;;;;;;5066146;28;20032;-62
2021/07/01 10:17:17;;;;;;;15.30;11.27;;;;;;;;;;5065288;28;20029;-62
2021/07/01 10:19:43;;;;;;;20.13;11.25;;;;;;;;;;5066245;28;20058;-61
2021/07/01 10:22:10;;;;;;;17.13;10.55;;;;;;;;;;5065378;28;20025;-62
2021/07/01 10:24:48;;;;;;;18.35;12.20;;;;;;;;;;5069309;28;20390;-62
2021/07/01 10:27:32;;;;;;;15.93;11.70;;;;;;;;;;5069926;28;20024;-61
2021/07/01 10:29:59;;;;;;;17.35;10.65;;;;;;;;;;5066744;28;20371;-62
2021/07/01 10:32:45;;;;;;;16.17;11.75;;;;;;;;;;5069055;28;20024;-62
2021/07/01 10:35:23;;;;;;;14.90;11.18;;;;;;;;;;5069509;28;20028;-62
2021/07/01 10:37:57;;;;;;;18.23;11.93;;;;;;;;;;5067098;28;20395;-62
2021/07/01 10:40:23;;;;;;;16.42;10.75;;;;;;;;;;5067503;28;20360;-61
2021/07/01 10:42:50;;;;;;;14.57;10.55;;;;;;;;;;5069484;28;20028;-62
2021/07/01 10:45:17;;;;;;;13.40;9.85;;;;;;;;;;5069655;28;20033;-62
2021/07/01 10:47:43;;;;;;;17.83;11.10;;;;;;;;;;5067399;28;20044;-62
2021/07/01 10:50:21;;;;;;;15.75;10.23;;;;;;;;;;5064174;28;20054;-59
2021/07/01 10:52:48;;;;;;;18.35;11.02;;;;;;;;;;5069087;28;20058;-60
2021/07/01 10:55:15;;;;;;;17.35;10.93;;;;;;;;;;5064658;28;20043;-60
2021/07/01 10:57:49;;;;;;;17.27;11.75;;;;;;;;;;5067125;28;20381;-60
2021/07/01 11:00:15;;;;;;;15.45;10.50;;;;;;;;;;5062375;28;20063;-60
2021/07/01 11:02:49;;;;;;;14.95;10.00;;;;;;;;;;5066614;28;20394;-61
2021/07/01 11:05:15;;;;;;;15.73;10.95;;;;;;;;;;5070201;28;20030;-60
2021/07/01 11:07:43;;;;;;;15.77;11.20;;;;;;;;;;5069027;28;20071;-60
2021/07/01 11:10:09;;;;;;;19.00;11.13;;;;;;;;;;5067383;28;20043;-60
2021/07/01 11:12:45;;;;;;;15.90;11.10;;;;;;;;;;5066855;28;20452;-60
2021/07/01 11:15:12;;;;;;;15.30;10.30;;;;;;;;;;5067060;28;20113;-60
2021/07/01 11:17:40;;;;;;;17.65;10.60;;;;;;;;;;5069112;28;20028;-60
2021/07/01 11:20:13;;;;;;;15.20;10.90;;;;;;;;;;5062799;28;20055;-61
2021/07/01 11:22:47;;;;;;;16.15;11.00;;;;;;;;;;5067801;28;20405;-60
2021/07/01 11:25:24;;;;;;;18.35;12.43;;;;;;;;;;5069115;28;20468;-59
2021/07/01 11:27:50;;;;;;;15.93;11.52;;;;;;;;;;5068333;28;20056;-60
2021/07/01 11:30:26;;;;;;;13.20;10.15;;;;;;;;;;5065783;28;20033;-60
2021/07/01 11:33:10;;;;;;;14.25;10.30;;;;;;;;;;5068542;28;20394;-59
2021/07/01 11:35:36;;;;;;;13.88;10.45;;;;;;;;;;5067884;28;20135;-60
2021/07/01 11:38:02;;;;;;;14.75;10.00;;;;;;;;;;5069102;28;20025;-60
2021/07/01 11:40:29;;;;;;;17.27;11.60;;;;;;;;;;5068186;28;20028;-60
2021/07/01 11:42:55;;;;;;;17.75;11.43;;;;;;;;;;5067546;28;20056;-60
2021/07/01 11:45:21;;;;;;;16.35;11.63;;;;;;;;;;5069743;28;20048;-60
2021/07/01 11:47:50;;;;;;;16.73;10.43;;;;;;;;;;5068327;28;20035;-60
2021/07/01 11:50:17;;;;;;;15.73;11.43;;;;;;;;;;5064790;28;20031;-59
2021/07/01 11:52:43;;;;;;;16.52;10.52;;;;;;;;;;5061812;28;20033;-58
2021/07/01 11:55:10;;;;;;;14.18;10.40;;;;;;;;;;5068309;28;20444;-59
2021/07/01 11:57:37;;;;;;;13.45;9.23;;;;;;;;;;5067963;28;20028;-58
2021/07/01 12:00:04;;;;;;;17.42;12.43;;;;;;;;;;5061740;28;20075;-60
2021/07/01 12:02:31;;;;;;;16.38;10.45;;;;;;;;;;5067183;28;20082;-59
2021/07/01 12:04:57;;;;;;;12.55;9.70;;;;;;;;;;5066861;28;20024;-60
2021/07/01 12:07:23;;;;;;;13.07;10.18;;;;;;;;;;5065266;28;20025;-60
2021/07/01 12:09:50;;;;;;;15.63;10.73;;;;;;;;;;5050129;28;20032;-60
2021/07/01 12:12:17;;;;;;;18.23;11.02;;;;;;;;;;5067825;28;20040;-61
2021/07/01 12:14:44;;;;;;;15.20;9.45;;;;;;;;;;5076924;28;20170;-61
2021/07/01 12:17:10;;;;;;;14.68;10.13;;;;;;;;;;5067988;28;20059;-60
2021/07/01 12:19:46;;;;;;;14.27;10.27;;;;;;;;;;5058030;28;20053;-60
2021/07/01 12:22:31;;;;;;;12.55;9.50;;;;;;;;;;5049076;28;20032;-60
2021/07/01 12:24:57;;;;;;;14.57;10.63;;;;;;;;;;5048666;28;20437;-61
2021/07/01 12:27:29;;;;;;;13.07;9.52;;;;;;;;;;5051856;28;20029;-60
2021/07/01 12:29:55;;;;;;;16.77;10.88;;;;;;;;;;5069502;28;20156;-61
2021/07/01 12:32:25;;;;;;;14.80;9.90;;;;;;;;;;5069042;28;20032;-60
2021/07/01 12:34:51;;;;;;;13.20;10.30;;;;;;;;;;5069413;28;20150;-60
2021/07/01 12:37:17;;;;;;;13.52;10.27;;;;;;;;;;5069012;28;20490;-60
2021/07/01 12:39:47;;;;;;;15.07;10.05;;;;;;;;;;5068668;28;20028;-60
2021/07/01 12:42:14;;;;;;;14.80;9.57;;;;;;;;;;5068880;28;20024;-60
2021/07/01 12:44:44;;;;;;;16.00;9.73;;;;;;;;;;5069061;28;20282;-60
2021/07/01 12:47:15;;;;;;;17.92;11.63;;;;;;;;;;5069856;28;20025;-61
2021/07/01 12:49:41;;;;;;;15.60;9.65;;;;;;;;;;5062563;28;20104;-59
2021/07/01 12:52:15;;;;;;;15.98;10.38;;;;;;;;;;5065074;28;20025;-60
2021/07/01 12:54:41;;;;;;;14.40;9.98;;;;;;;;;;5058973;28;20511;-60
2021/07/01 12:57:07;;;;;;;15.80;11.60;;;;;;;;;;5065973;28;20047;-60
2021/07/01 12:59:34;;;;;;;15.88;11.75;;;;;;;;;;5066183;28;20500;-59
2021/07/01 13:02:01;;;;;;;19.92;12.15;;;;;;;;;;5065570;28;20082;-60
2021/07/01 13:04:28;;;;;;;17.48;11.13;;;;;;;;;;5067199;28;20025;-61
2021/07/01 13:06:56;;;;;;;17.02;11.40;;;;;;;;;;5067236;28;20569;-59
2021/07/01 13:09:28;;;;;;;17.23;11.65;;;;;;;;;;5064618;28;20458;-60
2021/07/01 13:11:54;;;;;;;19.42;12.40;;;;;;;;;;5066956;28;20390;-59
2021/07/01 13:14:24;;;;;;;19.60;13.07;;;;;;;;;;5067085;28;20082;-59
2021/07/01 13:17:05;;;;;;;21.35;13.82;;;;;;;;;;5067019;28;20044;-60
2021/07/01 13:19:31;;;;;;;19.88;12.82;;;;;;;;;;5063214;28;20037;-60
2021/07/01 13:21:59;;;;;;;18.48;13.02;;;;;;;;;;5048715;28;20386;-60
2021/07/01 13:24:26;;;;;;;22.35;14.10;;;;;;;;;;5067079;28;20450;-60
2021/07/01 13:26:52;;;;;;;23.08;13.40;;;;;;;;;;5066726;28;20042;-60
2021/07/01 13:29:34;;;;;;;16.95;11.57;;;;;;;;;;5062902;28;20024;-61
2021/07/01 13:32:07;;;;;;;21.10;14.07;;;;;;;;;;5062316;28;20061;-60
2021/07/01 13:34:34;;;;;;;20.70;13.18;;;;;;;;;;5060681;28;20029;-60
2021/07/01 13:37:19;;;;;;;21.85;14.15;;;;;;;;;;5067834;28;20032;-61
2021/07/01 13:39:46;;;;;;;18.10;13.23;;;;;;;;;;5066097;28;20073;-63
2021/07/01 13:42:25;;;;;;;19.67;12.50;;;;;;;;;;5053666;28;20560;-62
2021/07/01 13:44:58;;;;;;;20.77;11.70;;;;;;;;;;5070093;28;20431;-60
2021/07/01 13:47:24;;;;;;;14.60;10.75;;;;;;;;;;5072364;28;20045;-61
2021/07/01 13:49:50;;;;;;;28.13;12.20;;;;;;;;;;5072464;28;20031;-62
2021/07/01 13:52:16;;;;;;;14.45;11.15;;;;;;;;;;5071151;28;20056;-62
2021/07/01 13:54:42;;;;;;;20.23;13.90;;;;;;;;;;5071214;28;20032;-62
2021/07/01 13:57:08;;;;;;;16.98;11.45;;;;;;;;;;5071480;28;20078;-62
2021/07/01 13:59:34;;;;;;;18.25;12.73;;;;;;;;;;5068959;28;20020;-59
2021/07/01 14:02:01;;;;;;;20.38;12.80;;;;;;;;;;5070491;28;20098;-61
2021/07/01 14:04:28;;;;;;;17.05;11.88;;;;;;;;;;5071450;28;20390;-62
2021/07/01 14:06:54;;;;;;;16.98;12.10;;;;;;;;;;5070862;28;20150;-59
2021/07/01 14:09:21;;;;;;;33.47;13.77;;;;;;;;;;5070668;28;20056;-60
2021/07/01 14:11:48;;;;;;;15.75;11.93;;;;;;;;;;5066434;28;20031;-61
2021/07/01 14:14:15;;;;;;;27.50;14.07;;;;;;;;;;5070418;28;20029;-61
2021/07/01 14:16:42;;;;;;;23.73;13.40;;;;;;;;;;5070642;28;20020;-60
2021/07/01 14:19:12;;;;;;;17.85;12.52;;;;;;;;;;5068365;28;20486;-61